If you wish to contribute or participate in the discussions about articles you are invited to join SKYbrary as a registered user

 Actions

Aomori Airport

From SKYbrary Wiki

RJSA
Airport
ICAO: RJSA – IATA: AOJ
Summary
Name Aomori Airport
Region Asia and Pacific
Territory Japan JP.gif
Location Aomori, Aomori Prefecture
Serving Aomori
Elevation 198.12 m <br />650 ft198.12 m <br />
Coordinates 40° 44' 17.81" N, 140° 41' 20.75" E
Runways
Designator Length Width Surface ROPS
6/24 3001 m9,845.801 ft <br /> 61 m200.131 ft <br /> ASP yes/yes


METAR
Observation RJSA 071200Z 13003KT CAVOK 12/06 Q1004
Station Aomori Airport
Date/Time 07 May 2021 12:00:00
Wind direction 130°
Wind speed 03 kts
Lowest cloud amount clouds and visibility OK
Temperature 12°C
Dew point 6°C
Humidity 66%
QNH 1004 hPa
Weather condition n/a

Regional airport located 11.2 km6.048 nm <br />11,200 m <br />36,745.407 ft <br /> south southwest of Aomori, the capital city of Aomori Prefecture in northern Japan.

Climatology

Humid Continental climate (Köppen climate classification Dfa)

Maps

Terrain

Loading map...

Airport Layout

Loading map...


Accidents & Serious Incidents at or in vicinity of RJSA

None on SKYbrary